createdAt,value
2018-04-22T00:00:21.023Z,14.00
2018-04-22T00:01:21.017Z,26.00
2018-04-22T00:02:21.023Z,12.00
2018-04-22T00:03:21.359Z,17.10
2018-04-22T00:04:21.003Z,14.80
2018-04-22T00:05:21.001Z,18.30
2018-04-22T00:06:20.992Z,18.90
2018-04-22T00:07:20.988Z,15.20
2018-04-22T00:08:20.982Z,13.10
2018-04-22T00:09:20.976Z,16.50
2018-04-22T00:10:20.974Z,18.30
2018-04-22T00:11:20.968Z,16.20
2018-04-22T00:12:20.964Z,15.50
2018-04-22T00:13:20.958Z,15.80
2018-04-22T00:14:20.954Z,13.80
2018-04-22T00:15:20.949Z,12.10
2018-04-22T00:16:20.946Z,14.90
2018-04-22T00:17:20.938Z,15.30
2018-04-22T00:18:20.934Z,16.90
2018-04-22T00:19:20.928Z,12.00
2018-04-22T00:20:20.925Z,14.60
2018-04-22T00:21:20.918Z,18.10
2018-04-22T00:22:20.914Z,17.20
2018-04-22T00:23:20.912Z,26.40
2018-04-22T00:24:20.904Z,13.50
2018-04-22T00:25:20.898Z,20.40
2018-04-22T00:26:20.893Z,18.60
2018-04-22T00:27:20.889Z,17.60
2018-04-22T00:28:20.883Z,17.00
2018-04-22T00:29:20.877Z,16.30
2018-04-22T00:30:20.873Z,18.30
2018-04-22T00:31:20.871Z,16.40
2018-04-22T00:32:20.863Z,17.10
2018-04-22T00:33:20.856Z,19.80
2018-04-22T00:34:20.852Z,13.60
2018-04-22T00:35:20.847Z,17.80
2018-04-22T00:36:20.843Z,16.90
2018-04-22T00:37:20.840Z,15.20
2018-04-22T00:38:20.832Z,14.90
2018-04-22T00:39:20.826Z,18.90
2018-04-22T00:40:20.821Z,14.60
2018-04-22T00:41:20.816Z,16.30
2018-04-22T00:42:20.810Z,16.70
2018-04-22T00:43:20.805Z,17.50
2018-04-22T00:44:20.802Z,16.40
2018-04-22T00:45:20.796Z,15.40
2018-04-22T00:46:20.790Z,15.90
2018-04-22T00:47:20.785Z,18.10
2018-04-22T00:48:20.781Z,12.50
2018-04-22T00:49:20.775Z,15.80
2018-04-22T00:50:20.770Z,17.70
2018-04-22T00:51:20.766Z,20.70
2018-04-22T00:52:20.767Z,18.90
2018-04-22T00:53:20.760Z,14.60
2018-04-22T00:54:20.753Z,17.90
2018-04-22T00:55:20.745Z,16.00
2018-04-22T00:56:20.789Z,16.80
2018-04-22T00:57:20.734Z,19.30
2018-04-22T00:58:20.730Z,15.20
2018-04-22T00:59:20.725Z,15.90
2018-04-22T01:00:20.724Z,18.20
2018-04-22T01:01:20.714Z,19.60
2018-04-22T01:02:20.709Z,18.20
2018-04-22T01:03:20.704Z,16.40
2018-04-22T01:04:20.704Z,19.10
2018-04-22T01:05:20.693Z,15.50
2018-04-22T01:06:20.692Z,12.70
2018-04-22T01:07:20.683Z,26.60
2018-04-22T01:08:20.678Z,21.10
2018-04-22T01:09:20.672Z,16.20
2018-04-22T01:10:20.667Z,18.40
2018-04-22T01:11:20.663Z,16.40
2018-04-22T01:12:20.656Z,20.10
2018-04-22T01:13:20.650Z,19.50
2018-04-22T01:14:20.645Z,17.50
2018-04-22T01:15:20.640Z,21.70
2018-04-22T01:16:20.636Z,15.60
2018-04-22T01:17:20.630Z,23.20
2018-04-22T01:18:20.625Z,18.10
2018-04-22T01:19:20.619Z,22.80
2018-04-22T01:20:20.614Z,19.60
2018-04-22T01:21:20.608Z,18.40
2018-04-22T01:22:20.604Z,24.60
2018-04-22T01:23:20.599Z,22.20
2018-04-22T01:24:20.596Z,18.90
2018-04-22T01:25:20.592Z,23.30
2018-04-22T01:26:20.584Z,21.80
2018-04-22T01:27:20.580Z,23.50
2018-04-22T01:28:20.576Z,19.70
2018-04-22T01:29:20.569Z,19.20
2018-04-22T01:30:20.563Z,21.80
2018-04-22T01:31:20.557Z,20.20
2018-04-22T01:32:20.554Z,23.80
2018-04-22T01:33:20.547Z,20.30
2018-04-22T01:34:20.541Z,18.80
2018-04-22T01:35:20.541Z,21.70
2018-04-22T01:36:20.531Z,16.60
2018-04-22T01:37:20.526Z,17.10
2018-04-22T01:38:20.522Z,19.80
2018-04-22T01:39:20.517Z,20.60
2018-04-22T01:40:20.511Z,21.40
2018-04-22T01:41:20.509Z,15.60
2018-04-22T01:42:20.500Z,18.70
2018-04-22T01:43:20.495Z,22.30
2018-04-22T01:44:20.490Z,27.00
2018-04-22T01:45:20.486Z,17.70
2018-04-22T01:46:20.479Z,14.80
2018-04-22T01:47:20.476Z,22.50
2018-04-22T01:48:20.470Z,20.30
2018-04-22T01:49:20.463Z,22.00
2018-04-22T01:50:20.459Z,19.90
2018-04-22T01:51:20.454Z,19.90
2018-04-22T01:52:20.448Z,16.90
2018-04-22T01:53:20.442Z,23.80
2018-04-22T01:54:20.437Z,17.40
2018-04-22T01:55:20.432Z,20.50
2018-04-22T01:56:20.425Z,20.50
2018-04-22T01:57:20.420Z,22.40
2018-04-22T01:58:20.416Z,20.40
2018-04-22T01:59:20.409Z,23.10
2018-04-22T02:00:20.404Z,19.70
2018-04-22T02:01:20.399Z,18.20
2018-04-22T02:02:20.394Z,15.70
2018-04-22T02:03:20.391Z,17.00
2018-04-22T02:04:20.383Z,19.00
2018-04-22T02:05:20.376Z,18.90
2018-04-22T02:06:20.372Z,20.90
2018-04-22T02:07:20.367Z,17.40
2018-04-22T02:08:20.363Z,17.80
2018-04-22T02:09:20.357Z,21.40
2018-04-22T02:10:20.350Z,18.30
2018-04-22T02:11:20.344Z,20.70
2018-04-22T02:12:20.340Z,16.40
2018-04-22T02:13:20.333Z,16.80
2018-04-22T02:14:20.327Z,16.90
2018-04-22T02:15:20.328Z,16.10
2018-04-22T02:16:20.320Z,22.00
2018-04-22T02:17:20.315Z,18.80
2018-04-22T02:18:20.306Z,18.70
2018-04-22T02:19:20.301Z,18.90
2018-04-22T02:20:20.297Z,16.50
2018-04-22T02:21:20.292Z,17.90
2018-04-22T02:22:20.285Z,15.70
2018-04-22T02:23:20.279Z,17.80
2018-04-22T02:24:20.275Z,24.70
2018-04-22T02:25:20.269Z,17.80
2018-04-22T02:26:20.263Z,16.90
2018-04-22T02:27:20.257Z,19.00
2018-04-22T02:28:20.253Z,17.60
2018-04-22T02:29:20.248Z,19.80
2018-04-22T02:30:20.241Z,14.70
2018-04-22T02:31:20.236Z,22.00
2018-04-22T02:32:20.232Z,15.10
2018-04-22T02:33:20.224Z,16.30
2018-04-22T02:34:20.220Z,15.70
2018-04-22T02:35:20.214Z,17.30
2018-04-22T02:36:20.211Z,20.40
2018-04-22T02:37:20.201Z,19.70
2018-04-22T02:38:20.200Z,19.10
2018-04-22T02:39:20.191Z,24.50
2018-04-22T02:40:20.187Z,17.40
2018-04-22T02:41:20.180Z,20.10
2018-04-22T02:42:20.174Z,15.60
2018-04-22T02:43:20.169Z,19.00
2018-04-22T02:44:20.163Z,17.90
2018-04-22T02:45:20.158Z,15.50
2018-04-22T02:46:20.158Z,18.90
2018-04-22T02:47:20.146Z,23.30
2018-04-22T02:48:20.145Z,20.00
2018-04-22T02:49:20.134Z,22.70
2018-04-22T02:50:20.129Z,18.60
2018-04-22T02:51:20.125Z,16.90
2018-04-22T02:52:20.124Z,15.70
2018-04-22T02:53:20.111Z,19.90
2018-04-22T02:54:20.113Z,18.80
2018-04-22T02:55:20.100Z,20.00
2018-04-22T02:56:20.101Z,20.80
2018-04-22T02:57:20.088Z,18.50
2018-04-22T02:58:20.082Z,20.90
2018-04-22T02:59:20.076Z,17.80
2018-04-22T03:00:20.072Z,16.90
2018-04-22T03:01:20.070Z,23.60
2018-04-22T03:02:20.059Z,16.60
2018-04-22T03:03:20.052Z,17.10
2018-04-22T03:04:20.050Z,24.00
2018-04-22T03:05:20.045Z,18.30
2018-04-22T03:06:20.035Z,18.60
2018-04-22T03:07:20.030Z,14.50
2018-04-22T03:08:20.024Z,19.00
2018-04-22T03:09:20.022Z,22.40
2018-04-22T03:10:20.012Z,15.80
2018-04-22T03:11:20.005Z,17.30
2018-04-22T03:12:19.999Z,18.30
2018-04-22T03:13:19.991Z,17.60
2018-04-22T03:14:19.987Z,17.80
2018-04-22T03:15:20.030Z,15.90
2018-04-22T03:16:19.974Z,20.10
2018-04-22T03:17:19.968Z,15.80
2018-04-22T03:18:19.961Z,19.10
2018-04-22T03:19:19.958Z,16.00
2018-04-22T03:20:19.951Z,17.50
2018-04-22T03:21:19.943Z,13.20
2018-04-22T03:22:19.974Z,19.10
2018-04-22T03:23:19.931Z,15.20
2018-04-22T03:24:19.925Z,17.50
2018-04-22T03:25:19.922Z,18.20
2018-04-22T03:26:19.914Z,13.60
2018-04-22T03:27:19.907Z,20.50
2018-04-22T03:28:19.902Z,15.10
2018-04-22T03:29:19.893Z,18.00
2018-04-22T03:30:19.888Z,15.00
2018-04-22T03:31:19.883Z,16.00
2018-04-22T03:32:19.876Z,18.30
2018-04-22T03:33:19.870Z,17.60
2018-04-22T03:34:19.863Z,18.70
2018-04-22T03:35:19.857Z,15.80
2018-04-22T03:36:19.852Z,15.10
2018-04-22T03:37:19.845Z,17.20
2018-04-22T03:38:19.840Z,16.30
2018-04-22T03:39:19.834Z,18.40
2018-04-22T03:40:19.828Z,17.80
2018-04-22T03:41:19.822Z,17.20
2018-04-22T03:42:19.817Z,17.20
2018-04-22T03:43:19.809Z,14.70
2018-04-22T03:44:19.805Z,19.30
2018-04-22T03:45:19.799Z,20.50
2018-04-22T03:46:19.793Z,17.70
2018-04-22T03:47:19.786Z,22.00
2018-04-22T03:48:19.780Z,17.30
2018-04-22T03:49:19.774Z,13.70
2018-04-22T03:50:19.769Z,15.40
2018-04-22T03:51:19.861Z,16.90
2018-04-22T03:52:19.755Z,14.90
2018-04-22T03:53:19.748Z,16.10
2018-04-22T03:54:19.742Z,14.40
2018-04-22T03:55:19.738Z,14.60
2018-04-22T03:56:19.730Z,16.60
2018-04-22T03:57:19.724Z,16.20
2018-04-22T03:58:19.717Z,17.60
2018-04-22T03:59:19.711Z,16.70
2018-04-22T04:00:19.717Z,20.30
2018-04-22T04:01:19.698Z,19.00
2018-04-22T04:02:19.692Z,15.40
2018-04-22T04:03:19.686Z,16.50
2018-04-22T04:04:19.682Z,16.40
2018-04-22T04:05:19.673Z,20.60
2018-04-22T04:06:19.669Z,15.60
2018-04-22T04:07:19.662Z,16.30
2018-04-22T04:08:19.658Z,19.40
2018-04-22T04:09:19.647Z,16.00
2018-04-22T04:10:19.641Z,15.60
2018-04-22T04:11:19.636Z,22.40
2018-04-22T04:12:19.630Z,18.40
2018-04-22T04:13:19.622Z,16.30
2018-04-22T04:14:19.616Z,13.20
2018-04-22T04:15:19.610Z,14.60
2018-04-22T04:16:19.604Z,12.30
2018-04-22T04:17:19.596Z,16.40
2018-04-22T04:18:19.595Z,15.10
2018-04-22T04:19:19.595Z,15.60
2018-04-22T04:20:19.578Z,17.30
2018-04-22T04:21:19.573Z,16.40
2018-04-22T04:22:19.568Z,16.10
2018-04-22T04:23:19.558Z,16.60
2018-04-22T04:24:19.552Z,22.80
2018-04-22T04:25:19.546Z,14.40
2018-04-22T04:26:19.539Z,18.30
2018-04-22T04:27:19.639Z,21.70
2018-04-22T04:28:19.526Z,15.30
2018-04-22T04:29:19.518Z,15.10
2018-04-22T04:30:19.516Z,14.00
2018-04-22T04:31:19.505Z,17.10
2018-04-22T04:32:19.499Z,18.50
2018-04-22T04:33:19.493Z,17.10
2018-04-22T04:34:19.486Z,14.30
2018-04-22T04:35:19.480Z,18.30
2018-04-22T04:36:19.473Z,16.80
2018-04-22T04:37:19.466Z,20.30
2018-04-22T04:38:19.459Z,18.50
2018-04-22T04:39:19.453Z,18.40
2018-04-22T04:40:19.445Z,15.90
2018-04-22T04:41:19.438Z,17.50
2018-04-22T04:42:19.432Z,18.10
2018-04-22T04:43:19.426Z,14.10
2018-04-22T04:44:19.419Z,23.00
2018-04-22T04:45:19.413Z,15.40
2018-04-22T04:46:19.405Z,17.00
2018-04-22T04:47:19.399Z,17.80
2018-04-22T04:48:19.395Z,15.80
2018-04-22T04:49:19.385Z,20.60
2018-04-22T04:50:19.384Z,14.90
2018-04-22T04:51:19.373Z,20.00
2018-04-22T04:52:19.366Z,21.20
2018-04-22T04:53:19.361Z,16.70
2018-04-22T04:54:19.395Z,17.20
2018-04-22T04:55:19.346Z,17.00
2018-04-22T04:56:19.339Z,14.10
2018-04-22T04:57:19.333Z,18.10
2018-04-22T04:58:19.328Z,17.10
2018-04-22T04:59:19.319Z,14.50
2018-04-22T05:00:19.371Z,18.40
2018-04-22T05:01:19.305Z,14.90
2018-04-22T05:02:19.300Z,20.80
2018-04-22T05:03:19.292Z,21.80
2018-04-22T05:04:19.286Z,15.80
2018-04-22T05:05:19.279Z,18.10
2018-04-22T05:06:19.275Z,15.20
2018-04-22T05:07:19.266Z,14.60
2018-04-22T05:08:19.259Z,14.90
2018-04-22T05:09:19.251Z,19.80
2018-04-22T05:10:19.246Z,13.70
2018-04-22T05:11:19.247Z,16.80
2018-04-22T05:12:19.232Z,14.50
2018-04-22T05:13:19.229Z,15.40
2018-04-22T05:14:19.220Z,23.30
2018-04-22T05:15:19.212Z,14.40
2018-04-22T05:16:19.212Z,17.80
2018-04-22T05:17:19.200Z,16.20
2018-04-22T05:18:19.193Z,14.60
2018-04-22T05:19:19.186Z,15.10
2018-04-22T05:20:19.181Z,18.20
2018-04-22T05:21:19.173Z,21.30
2018-04-22T05:22:19.170Z,17.00
2018-04-22T05:23:19.162Z,14.40
2018-04-22T05:24:19.216Z,14.20
2018-04-22T05:25:19.152Z,15.10
2018-04-22T05:26:19.142Z,16.50
2018-04-22T05:27:19.136Z,16.10
2018-04-22T05:28:19.130Z,17.80
2018-04-22T05:29:19.126Z,15.20
2018-04-22T05:30:19.116Z,18.00
2018-04-22T05:31:19.112Z,18.70
2018-04-22T05:32:19.105Z,14.60
2018-04-22T05:33:19.098Z,17.00
2018-04-22T05:34:19.093Z,15.20
2018-04-22T05:35:19.088Z,18.40
2018-04-22T05:36:19.081Z,16.30
2018-04-22T05:37:19.074Z,14.40
2018-04-22T05:38:19.069Z,15.30
2018-04-22T05:39:19.113Z,12.50
2018-04-22T05:40:19.058Z,16.00
2018-04-22T05:41:19.050Z,17.60
2018-04-22T05:42:19.045Z,19.70
2018-04-22T05:43:19.039Z,15.30
2018-04-22T05:44:19.034Z,19.80
2018-04-22T05:45:19.029Z,17.80
2018-04-22T05:46:19.023Z,17.30
2018-04-22T05:47:19.016Z,19.10
2018-04-22T05:48:19.011Z,16.80
2018-04-22T05:49:19.004Z,17.80
2018-04-22T05:50:19.031Z,14.50
2018-04-22T05:51:18.994Z,12.90
2018-04-22T05:52:18.988Z,11.50
2018-04-22T05:53:18.982Z,15.90
2018-04-22T05:54:18.977Z,14.60
2018-04-22T05:55:18.973Z,12.30
2018-04-22T05:56:18.972Z,19.30
2018-04-22T05:57:19.061Z,14.90
2018-04-22T05:58:18.957Z,13.30
2018-04-22T05:59:18.955Z,24.30
2018-04-22T06:00:18.949Z,20.10
2018-04-22T06:01:18.941Z,14.50
2018-04-22T06:02:18.944Z,11.80
2018-04-22T06:03:18.932Z,10.30
2018-04-22T06:04:18.932Z,11.90
2018-04-22T06:05:18.923Z,19.10
2018-04-22T06:06:18.918Z,10.90
2018-04-22T06:07:18.917Z,14.10
2018-04-22T06:08:18.911Z,14.10
2018-04-22T06:09:18.904Z,7.50
2018-04-22T06:10:18.901Z,10.00
2018-04-22T06:11:18.897Z,13.80
2018-04-22T06:12:18.893Z,12.20
2018-04-22T06:13:18.890Z,8.40
2018-04-22T06:14:18.885Z,10.20
2018-04-22T06:15:18.881Z,9.40
2018-04-22T06:16:18.877Z,10.50
2018-04-22T06:17:18.899Z,11.10
2018-04-22T06:18:18.869Z,11.10
2018-04-22T06:19:18.866Z,15.60
2018-04-22T06:20:18.862Z,10.10
2018-04-22T06:21:18.857Z,11.70
2018-04-22T06:22:18.854Z,8.20
2018-04-22T06:23:18.850Z,9.70
2018-04-22T06:24:18.847Z,10.30
2018-04-22T06:25:18.844Z,8.80
2018-04-22T06:26:18.840Z,10.60
2018-04-22T06:27:18.837Z,8.30
2018-04-22T06:28:18.843Z,10.90
2018-04-22T06:29:18.830Z,10.20
2018-04-22T06:30:18.826Z,10.50
2018-04-22T06:31:18.823Z,10.30
2018-04-22T06:32:18.820Z,10.80
2018-04-22T06:33:18.816Z,12.10
2018-04-22T06:34:18.813Z,12.20
2018-04-22T06:35:18.813Z,12.00
2018-04-22T06:36:18.808Z,8.70
2018-04-22T06:37:18.803Z,11.30
2018-04-22T06:38:18.801Z,15.70
2018-04-22T06:39:18.798Z,10.10
2018-04-22T06:40:18.800Z,11.90
2018-04-22T06:41:18.792Z,9.70
2018-04-22T06:42:18.790Z,13.30
2018-04-22T06:43:18.786Z,9.00
2018-04-22T06:44:18.785Z,8.40
2018-04-22T06:45:18.780Z,7.70
2018-04-22T06:46:18.778Z,7.70
2018-04-22T06:47:18.775Z,8.60
2018-04-22T06:48:18.775Z,10.20
2018-04-22T06:49:18.770Z,6.90
2018-04-22T06:50:18.767Z,9.10
2018-04-22T06:51:18.765Z,7.30
2018-04-22T06:52:18.766Z,9.80
2018-04-22T06:53:18.767Z,4.90
2018-04-22T06:54:18.764Z,9.80
2018-04-22T06:55:18.757Z,11.10
2018-04-22T06:56:18.755Z,8.80
2018-04-22T06:57:18.753Z,6.00
2018-04-22T06:58:18.752Z,8.50
2018-04-22T06:59:18.753Z,6.10
2018-04-22T07:00:18.749Z,5.30
2018-04-22T07:01:18.746Z,7.30
2018-04-22T07:02:18.745Z,7.60
2018-04-22T07:03:18.746Z,6.80
2018-04-22T07:04:18.747Z,9.40
2018-04-22T07:05:18.742Z,4.70
2018-04-22T07:06:18.744Z,4.90
2018-04-22T07:07:18.742Z,6.60
2018-04-22T07:08:18.742Z,5.60
2018-04-22T07:09:18.742Z,5.20
2018-04-22T07:10:18.742Z,4.10
2018-04-22T07:11:18.742Z,3.50
2018-04-22T07:12:18.743Z,12.10
2018-04-22T07:13:18.743Z,3.90
2018-04-22T07:14:18.745Z,4.20
2018-04-22T07:15:18.755Z,8.30
2018-04-22T07:16:18.748Z,5.70
2018-04-22T07:17:18.750Z,5.40
2018-04-22T07:18:18.752Z,4.70
2018-04-22T07:19:18.757Z,4.40
2018-04-22T07:20:18.758Z,4.30
2018-04-22T07:21:18.763Z,5.40
2018-04-22T07:22:18.764Z,7.50
2018-04-22T07:23:18.769Z,4.30
2018-04-22T07:24:18.772Z,10.70
2018-04-22T07:25:18.776Z,4.30
2018-04-22T07:26:18.783Z,6.90
2018-04-22T07:27:18.886Z,4.70
2018-04-22T07:28:18.790Z,5.60
2018-04-22T07:29:18.796Z,5.20
2018-04-22T07:30:18.800Z,5.00
2018-04-22T07:31:18.804Z,6.70
2018-04-22T07:32:18.811Z,4.60
2018-04-22T07:33:18.814Z,3.20
2018-04-22T07:34:18.820Z,3.10
2018-04-22T07:35:18.825Z,3.80
2018-04-22T07:36:18.831Z,5.70
2018-04-22T07:37:18.837Z,3.00
2018-04-22T07:38:18.841Z,3.40
2018-04-22T07:39:18.849Z,8.20
2018-04-22T07:40:18.853Z,4.30
2018-04-22T07:41:18.858Z,3.80
2018-04-22T07:42:18.928Z,4.20
2018-04-22T07:43:18.870Z,2.90
2018-04-22T07:44:18.877Z,6.60
2018-04-22T07:45:18.885Z,5.10
2018-04-22T07:46:18.888Z,6.50
2018-04-22T07:47:18.898Z,4.20
2018-04-22T07:48:18.902Z,6.60
2018-04-22T07:49:18.909Z,2.70
2018-04-22T07:50:18.917Z,3.50
2018-04-22T07:51:18.927Z,3.80
2018-04-22T07:52:18.936Z,7.50
2018-04-22T07:53:18.941Z,3.80
2018-04-22T07:54:18.949Z,5.10
2018-04-22T07:55:18.958Z,7.20
2018-04-22T07:56:18.968Z,3.50
2018-04-22T07:57:18.975Z,7.20
2018-04-22T07:58:18.984Z,2.70
2018-04-22T07:59:18.994Z,2.30
2018-04-22T08:00:19.004Z,5.60
2018-04-22T08:01:19.012Z,3.30
2018-04-22T08:02:19.022Z,3.00
2018-04-22T08:03:19.132Z,4.70
2018-04-22T08:04:19.043Z,4.90
2018-04-22T08:05:19.050Z,3.80
2018-04-22T08:06:19.060Z,4.00
2018-04-22T08:07:19.077Z,2.60
2018-04-22T08:08:19.084Z,2.40
2018-04-22T08:09:19.091Z,6.10
2018-04-22T08:10:19.102Z,2.40
2018-04-22T08:11:19.129Z,2.90
2018-04-22T08:12:19.123Z,4.60
2018-04-22T08:13:19.133Z,3.30
2018-04-22T08:14:19.144Z,4.40
2018-04-22T08:15:19.154Z,4.00
2018-04-22T08:16:19.210Z,3.50
2018-04-22T08:17:19.175Z,4.30
2018-04-22T08:18:19.186Z,2.70
2018-04-22T08:19:19.197Z,2.00
2018-04-22T08:20:19.208Z,4.90
2018-04-22T08:21:19.217Z,3.90
2018-04-22T08:22:19.244Z,3.60
2018-04-22T08:23:19.241Z,2.60
2018-04-22T08:24:19.259Z,3.60
2018-04-22T08:25:19.262Z,4.00
2018-04-22T08:26:19.273Z,4.70
2018-04-22T08:27:19.284Z,2.40
2018-04-22T08:28:19.313Z,3.30
2018-04-22T08:29:19.308Z,5.80
2018-04-22T08:30:19.322Z,5.30
2018-04-22T08:31:19.334Z,6.20
2018-04-22T08:32:19.346Z,7.80
2018-04-22T08:33:19.403Z,2.40
2018-04-22T08:34:19.370Z,4.50
2018-04-22T08:35:19.385Z,6.60
2018-04-22T08:36:19.396Z,3.90
2018-04-22T08:37:19.407Z,3.40
2018-04-22T08:38:19.419Z,7.80
2018-04-22T08:39:19.432Z,3.30
2018-04-22T08:40:19.444Z,3.00
2018-04-22T08:41:19.461Z,5.70
2018-04-22T08:42:19.467Z,6.40
2018-04-22T08:43:19.478Z,3.00
2018-04-22T08:44:19.489Z,8.40
2018-04-22T08:45:19.498Z,7.90
2018-04-22T08:46:19.508Z,3.10
2018-04-22T08:47:19.517Z,2.50
2018-04-22T08:48:19.532Z,3.80
2018-04-22T08:49:19.533Z,6.20
2018-04-22T08:50:19.544Z,5.50
2018-04-22T08:51:19.551Z,3.60
2018-04-22T08:52:19.559Z,3.00
2018-04-22T08:53:19.567Z,3.00
2018-04-22T08:54:19.575Z,5.30
2018-04-22T08:55:19.583Z,2.70
2018-04-22T08:56:19.591Z,7.40
2018-04-22T08:57:19.649Z,4.80
2018-04-22T08:58:19.606Z,3.60
2018-04-22T08:59:19.615Z,12.90
2018-04-22T09:00:19.621Z,2.60
2018-04-22T09:01:19.628Z,2.60
2018-04-22T09:02:19.635Z,3.70
2018-04-22T09:03:19.642Z,3.50
2018-04-22T09:04:19.652Z,6.40
2018-04-22T09:05:19.655Z,7.40
2018-04-22T09:06:19.662Z,2.60
2018-04-22T09:07:19.669Z,4.60
2018-04-22T09:08:19.676Z,1.80
2018-04-22T09:09:19.682Z,4.60
2018-04-22T09:10:19.686Z,5.30
2018-04-22T09:11:19.693Z,4.00
2018-04-22T09:12:19.700Z,12.90
2018-04-22T09:13:19.707Z,5.30
2018-04-22T09:14:19.716Z,3.40
2018-04-22T09:15:19.820Z,3.80
2018-04-22T09:16:19.746Z,5.00
2018-04-22T09:17:19.732Z,5.30
2018-04-22T09:18:19.740Z,3.30
2018-04-22T09:19:19.748Z,6.40
2018-04-22T09:20:19.756Z,5.20
2018-04-22T09:21:19.761Z,3.80
2018-04-22T09:22:19.770Z,3.00
2018-04-22T09:23:19.779Z,4.90
2018-04-22T09:24:19.787Z,4.40
2018-04-22T09:25:19.791Z,4.90
2018-04-22T09:26:19.800Z,3.00
2018-04-22T09:27:19.808Z,6.00
2018-04-22T09:28:19.817Z,7.70
2018-04-22T09:29:19.829Z,2.90
2018-04-22T09:30:19.834Z,3.60
2018-04-22T09:31:19.841Z,3.00
2018-04-22T09:32:19.850Z,4.00
2018-04-22T09:33:19.857Z,4.60
2018-04-22T09:34:19.867Z,2.70
2018-04-22T09:35:19.875Z,3.70
2018-04-22T09:36:19.885Z,3.50
2018-04-22T09:37:19.892Z,3.50
2018-04-22T09:38:19.915Z,7.00
2018-04-22T09:39:19.913Z,2.60
2018-04-22T09:40:19.919Z,3.80
2018-04-22T09:41:19.926Z,2.20
2018-04-22T09:42:19.938Z,3.50
2018-04-22T09:43:19.943Z,4.70
2018-04-22T09:44:19.951Z,3.60
2018-04-22T09:45:19.961Z,6.60
2018-04-22T09:46:19.966Z,4.10
2018-04-22T09:47:19.977Z,3.30
2018-04-22T09:48:19.979Z,4.00
2018-04-22T09:49:19.984Z,3.90
2018-04-22T09:50:19.991Z,4.10
2018-04-22T09:51:20.048Z,4.10
2018-04-22T09:52:20.006Z,7.20
2018-04-22T09:53:20.058Z,5.60
2018-04-22T09:54:20.019Z,3.70
2018-04-22T09:55:20.026Z,8.10
2018-04-22T09:56:20.034Z,3.00
2018-04-22T09:57:20.040Z,4.50
2018-04-22T09:58:20.046Z,4.70
2018-04-22T09:59:20.055Z,6.20
2018-04-22T10:00:20.060Z,3.90
2018-04-22T10:01:20.067Z,7.20
2018-04-22T10:02:20.075Z,6.30
2018-04-22T10:03:20.086Z,4.80
2018-04-22T10:04:20.092Z,14.30
2018-04-22T10:05:20.099Z,4.90
2018-04-22T10:06:20.110Z,6.40
2018-04-22T10:07:20.121Z,6.20
2018-04-22T10:08:20.131Z,3.20
2018-04-22T10:09:20.141Z,2.50
2018-04-22T10:10:20.157Z,2.30
2018-04-22T10:11:20.164Z,10.30
2018-04-22T10:12:20.177Z,6.10
2018-04-22T10:13:20.192Z,4.00
2018-04-22T10:14:20.205Z,9.30
2018-04-22T10:15:20.215Z,6.10
2018-04-22T10:16:20.231Z,2.50
2018-04-22T10:17:20.244Z,9.80
2018-04-22T10:18:20.258Z,3.00
2018-04-22T10:19:20.274Z,4.40
2018-04-22T10:20:20.289Z,5.00
2018-04-22T10:21:20.302Z,4.10
2018-04-22T10:22:20.318Z,2.80
2018-04-22T10:23:20.335Z,3.00
2018-04-22T10:24:20.350Z,2.70
2018-04-22T10:25:20.365Z,2.70
2018-04-22T10:26:20.380Z,5.90
2018-04-22T10:27:20.400Z,2.90
2018-04-22T10:28:20.411Z,3.40
2018-04-22T10:29:20.428Z,3.20
2018-04-22T10:30:20.443Z,3.80
2018-04-22T10:31:20.460Z,3.40
2018-04-22T10:32:20.479Z,5.60
2018-04-22T10:33:20.493Z,3.10
2018-04-22T10:34:20.511Z,2.80
2018-04-22T10:35:20.527Z,6.00
2018-04-22T10:36:20.543Z,8.90
2018-04-22T10:37:20.560Z,3.00
2018-04-22T10:38:20.577Z,3.30
2018-04-22T10:39:20.594Z,5.70
2018-04-22T10:40:20.613Z,4.40
2018-04-22T10:41:20.629Z,3.50
2018-04-22T10:42:20.646Z,3.60
2018-04-22T10:43:20.664Z,3.20
2018-04-22T10:44:20.681Z,3.30
2018-04-22T10:45:20.698Z,3.50
2018-04-22T10:46:20.716Z,5.80
2018-04-22T10:47:20.734Z,4.40
2018-04-22T10:48:20.753Z,3.70
2018-04-22T10:49:20.772Z,4.50
2018-04-22T10:50:20.788Z,3.70
2018-04-22T10:51:20.804Z,3.80
2018-04-22T10:52:20.823Z,3.20
2018-04-22T10:53:20.841Z,5.70
2018-04-22T10:54:20.857Z,5.00
2018-04-22T10:55:20.875Z,4.20
2018-04-22T10:56:20.895Z,3.50
2018-04-22T10:57:20.911Z,4.00
2018-04-22T10:58:20.927Z,8.40
2018-04-22T10:59:20.946Z,3.60
2018-04-22T11:00:20.963Z,7.60
2018-04-22T11:01:20.981Z,4.80
2018-04-22T11:02:20.998Z,5.60
2018-04-22T11:03:21.017Z,3.60
2018-04-22T11:04:21.035Z,5.90
2018-04-22T11:05:21.051Z,3.80
2018-04-22T11:06:21.075Z,4.60
2018-04-22T11:07:21.143Z,4.30
2018-04-22T11:08:21.107Z,8.60
2018-04-22T11:09:21.125Z,4.40
2018-04-22T11:10:21.143Z,4.60
2018-04-22T11:11:21.164Z,5.50
2018-04-22T11:12:21.181Z,4.30
2018-04-22T11:13:21.197Z,7.20
2018-04-22T11:14:21.321Z,4.30
2018-04-22T11:15:21.234Z,5.10
2018-04-22T11:16:21.252Z,4.00
2018-04-22T11:17:21.268Z,3.60
2018-04-22T11:18:21.285Z,2.60
2018-04-22T11:19:21.304Z,7.80
2018-04-22T11:20:21.319Z,3.90
2018-04-22T11:21:21.334Z,2.40
2018-04-22T11:22:21.348Z,5.80
2018-04-22T11:23:21.365Z,3.50
2018-04-22T11:24:21.377Z,3.90
2018-04-22T11:25:21.394Z,5.40
2018-04-22T11:26:21.407Z,4.40
2018-04-22T11:27:21.467Z,5.20
2018-04-22T11:28:21.431Z,4.30
2018-04-22T11:29:21.441Z,2.40
2018-04-22T11:30:21.454Z,4.50
2018-04-22T11:31:21.466Z,4.10
2018-04-22T11:32:21.481Z,2.30
2018-04-22T11:33:21.490Z,4.10
2018-04-22T11:34:21.500Z,2.50
2018-04-22T11:35:21.512Z,4.10
2018-04-22T11:36:21.523Z,2.10
2018-04-22T11:37:21.535Z,3.10
2018-04-22T11:38:21.546Z,3.80
2018-04-22T11:39:21.557Z,3.90
2018-04-22T11:40:21.562Z,2.60
2018-04-22T11:41:21.574Z,3.70
2018-04-22T11:42:21.578Z,4.70
2018-04-22T11:43:21.588Z,5.20
2018-04-22T11:44:21.596Z,7.90
2018-04-22T11:45:21.604Z,2.80
2018-04-22T11:46:21.614Z,3.00
2018-04-22T11:47:21.623Z,5.50
2018-04-22T11:48:21.639Z,3.50
2018-04-22T11:49:21.640Z,6.60
2018-04-22T11:50:21.750Z,3.00
2018-04-22T11:51:21.661Z,3.30
2018-04-22T11:52:21.670Z,5.80
2018-04-22T11:53:21.680Z,7.40
2018-04-22T11:54:21.688Z,3.00
2018-04-22T11:55:21.697Z,4.80
2018-04-22T11:56:21.708Z,7.80
2018-04-22T11:57:21.715Z,3.60
2018-04-22T11:58:21.722Z,7.20
2018-04-22T11:59:21.730Z,3.10
2018-04-22T12:00:21.738Z,7.20
2018-04-22T12:01:21.745Z,3.20
2018-04-22T12:02:21.758Z,4.40
2018-04-22T12:03:21.761Z,4.10
2018-04-22T12:04:21.766Z,2.80
2018-04-22T12:05:21.780Z,3.10
2018-04-22T12:06:21.775Z,5.70
2018-04-22T12:07:21.787Z,3.80
2018-04-22T12:08:21.787Z,4.20
2018-04-22T12:09:21.792Z,6.70
2018-04-22T12:10:21.798Z,5.50
2018-04-22T12:11:21.803Z,5.00
2018-04-22T12:12:21.809Z,3.50
2018-04-22T12:13:21.814Z,5.50
2018-04-22T12:14:21.820Z,2.30
2018-04-22T12:15:21.826Z,4.70
2018-04-22T12:16:21.837Z,3.20
2018-04-22T12:17:21.836Z,2.50
2018-04-22T12:18:21.842Z,3.30
2018-04-22T12:19:21.849Z,4.80
2018-04-22T12:20:21.853Z,3.10
2018-04-22T12:21:21.858Z,3.00
2018-04-22T12:22:21.864Z,4.20
2018-04-22T12:23:21.871Z,2.40
2018-04-22T12:24:21.877Z,2.50
2018-04-22T12:25:21.883Z,3.40
2018-04-22T12:26:21.891Z,1.80
2018-04-22T12:27:21.895Z,2.00
2018-04-22T12:28:21.902Z,4.90
2018-04-22T12:29:21.907Z,2.90
2018-04-22T12:30:21.913Z,8.90
2018-04-22T12:31:21.922Z,4.00
2018-04-22T12:32:21.925Z,2.80
2018-04-22T12:33:21.930Z,3.10
2018-04-22T12:34:21.936Z,2.70
2018-04-22T12:35:21.945Z,3.00
2018-04-22T12:36:21.950Z,3.70
2018-04-22T12:37:21.955Z,2.00
2018-04-22T12:38:21.960Z,1.90
2018-04-22T12:39:21.966Z,3.00
2018-04-22T12:40:21.974Z,4.90
2018-04-22T12:41:21.978Z,1.90
2018-04-22T12:42:21.983Z,3.80
2018-04-22T12:43:21.990Z,3.30
2018-04-22T12:44:21.995Z,3.20
2018-04-22T12:45:21.999Z,2.00
2018-04-22T12:46:22.004Z,2.40
2018-04-22T12:47:22.010Z,2.70
2018-04-22T12:48:22.013Z,2.80
2018-04-22T12:49:22.018Z,2.10
2018-04-22T12:50:22.022Z,3.80
2018-04-22T12:51:22.027Z,5.80
2018-04-22T12:52:22.030Z,2.30
2018-04-22T12:53:22.034Z,9.30
2018-04-22T12:54:22.043Z,5.50
2018-04-22T12:55:22.044Z,2.70
2018-04-22T12:56:22.053Z,4.40
2018-04-22T12:57:22.052Z,2.90
2018-04-22T12:58:22.057Z,3.60
2018-04-22T12:59:22.072Z,2.30
2018-04-22T13:00:22.066Z,4.70
2018-04-22T13:01:22.071Z,1.70
2018-04-22T13:02:22.075Z,7.40
2018-04-22T13:03:22.081Z,1.50
2018-04-22T13:04:22.086Z,2.50
2018-04-22T13:05:22.095Z,3.00